createdAt,value
2022-10-07T00:01:47.919Z,14.07
2022-10-07T00:07:19.635Z,14.06
2022-10-07T00:12:51.134Z,14.06
2022-10-07T00:18:24.964Z,14.05
2022-10-07T00:23:56.799Z,14.03
2022-10-07T00:29:28.525Z,14.02
2022-10-07T00:35:00.276Z,14.00
2022-10-07T00:40:31.857Z,13.97
2022-10-07T00:46:03.702Z,13.96
2022-10-07T00:51:35.140Z,13.94
2022-10-07T00:57:06.598Z,13.89
2022-10-07T01:02:38.583Z,13.86
2022-10-07T01:08:10.096Z,13.85
2022-10-07T01:13:41.841Z,13.85
2022-10-07T01:19:13.362Z,13.83
2022-10-07T01:24:45.051Z,13.79
2022-10-07T01:30:16.840Z,13.76
2022-10-07T01:35:49.643Z,13.76
2022-10-07T01:41:21.520Z,13.74
2022-10-07T01:46:53.302Z,13.73
2022-10-07T01:52:25.247Z,13.71
2022-10-07T01:57:56.914Z,13.72
2022-10-07T02:03:28.768Z,13.73
2022-10-07T02:09:00.349Z,13.72
2022-10-07T02:14:32.177Z,13.69
2022-10-07T02:20:03.815Z,13.67
2022-10-07T02:25:35.913Z,13.65
2022-10-07T02:31:07.560Z,13.64
2022-10-07T02:36:39.361Z,13.64
2022-10-07T02:42:11.189Z,13.62
2022-10-07T02:47:43.175Z,13.60
2022-10-07T02:53:14.492Z,13.56
2022-10-07T02:58:46.377Z,13.53
2022-10-07T03:04:18.142Z,13.52
2022-10-07T03:09:50.056Z,13.52
2022-10-07T03:15:21.920Z,13.49
2022-10-07T03:20:53.742Z,13.47
2022-10-07T03:26:25.554Z,13.45
2022-10-07T03:34:19.239Z,12.92
2022-10-07T03:39:52.178Z,13.09
2022-10-07T03:45:24.045Z,13.14
2022-10-07T03:50:55.924Z,13.12
2022-10-07T03:56:29.610Z,13.08
2022-10-07T04:02:01.438Z,13.02
2022-10-07T04:07:33.026Z,12.97
2022-10-07T04:18:38.117Z,12.87
2022-10-07T04:24:09.990Z,12.80
2022-10-07T04:29:41.721Z,12.73
2022-10-07T04:35:13.093Z,12.67
2022-10-07T04:40:44.441Z,12.60
2022-10-07T04:46:16.263Z,12.53
2022-10-07T04:51:47.889Z,12.44
2022-10-07T04:57:19.606Z,12.35
2022-10-07T05:02:50.986Z,12.26
2022-10-07T05:08:22.976Z,12.17
2022-10-07T05:13:54.668Z,12.08
2022-10-07T05:19:26.252Z,12.00
2022-10-07T05:24:57.881Z,11.91
2022-10-07T05:30:29.797Z,11.84
2022-10-07T05:36:01.350Z,11.77
2022-10-07T05:41:36.101Z,11.74
2022-10-07T05:47:04.854Z,11.72
2022-10-07T05:52:36.574Z,11.73
2022-10-07T05:58:07.926Z,11.75
2022-10-07T06:03:39.699Z,11.80
2022-10-07T06:09:11.301Z,11.88
2022-10-07T06:14:42.606Z,11.98
2022-10-07T06:20:13.932Z,12.11
2022-10-07T06:25:48.797Z,12.26
2022-10-07T06:31:20.446Z,12.42
2022-10-07T06:36:52.189Z,12.60
2022-10-07T06:42:23.549Z,12.78
2022-10-07T06:47:55.272Z,12.96
2022-10-07T06:53:26.938Z,13.12
2022-10-07T06:58:58.349Z,13.27
2022-10-07T07:04:29.674Z,13.41
2022-10-07T07:10:01.086Z,13.57
2022-10-07T07:15:32.886Z,13.77
2022-10-07T07:21:04.945Z,14.00
2022-10-07T07:26:36.408Z,14.23
2022-10-07T07:32:08.619Z,14.45
2022-10-07T07:40:00.478Z,14.68
2022-10-07T07:45:31.454Z,14.87
2022-10-07T07:51:02.892Z,15.00
2022-10-07T07:56:34.680Z,15.13
2022-10-07T08:02:06.724Z,15.23
2022-10-07T08:07:38.463Z,15.32
2022-10-07T08:13:10.210Z,15.43
2022-10-07T08:18:41.716Z,15.52
2022-10-07T08:24:12.832Z,15.63
2022-10-07T08:29:44.343Z,15.77
2022-10-07T08:35:16.410Z,15.91
2022-10-07T08:40:48.842Z,16.05
2022-10-07T08:46:20.308Z,16.17
2022-10-07T08:51:52.035Z,16.29
2022-10-07T08:57:23.474Z,16.43
2022-10-07T09:02:55.310Z,16.58
2022-10-07T09:08:26.687Z,16.74
2022-10-07T09:13:58.220Z,16.93
2022-10-07T09:19:29.671Z,17.16
2022-10-07T09:25:01.151Z,17.36
2022-10-07T09:36:02.439Z,17.74
2022-10-07T09:41:34.174Z,17.76
2022-10-07T09:52:35.667Z,17.88
2022-10-07T10:03:36.962Z,18.22
2022-10-07T10:09:08.620Z,18.41
2022-10-07T10:14:40.467Z,18.59
2022-10-07T10:20:12.225Z,18.75
2022-10-07T10:28:03.797Z,18.40
2022-10-07T10:33:34.636Z,18.61
2022-10-07T10:39:05.999Z,18.75
2022-10-07T10:44:37.858Z,18.84
2022-10-07T10:50:09.644Z,18.93
2022-10-07T11:01:12.827Z,19.14
2022-10-07T11:06:44.766Z,19.24
2022-10-07T11:12:16.471Z,19.30
2022-10-07T11:17:48.206Z,19.38
2022-10-07T11:23:19.594Z,19.38
2022-10-07T11:28:52.774Z,19.32
2022-10-07T11:34:24.142Z,19.32
2022-10-07T11:39:55.652Z,19.37
2022-10-07T11:45:27.502Z,19.41
2022-10-07T11:50:59.344Z,19.42
2022-10-07T11:56:31.153Z,19.39
2022-10-07T12:02:03.021Z,19.39
2022-10-07T12:13:04.699Z,19.35
2022-10-07T12:18:36.518Z,19.36
2022-10-07T12:24:08.353Z,19.40
2022-10-07T12:29:40.125Z,19.49
2022-10-07T12:35:11.957Z,19.59
2022-10-07T12:40:44.160Z,19.70
2022-10-07T12:46:16.254Z,19.75
2022-10-07T12:51:47.699Z,19.75
2022-10-07T13:02:49.573Z,19.59
2022-10-07T13:10:40.607Z,19.16
2022-10-07T13:16:12.042Z,19.42
2022-10-07T13:21:43.721Z,19.66
2022-10-07T13:27:15.723Z,19.78
2022-10-07T13:32:47.503Z,19.82
2022-10-07T13:38:19.103Z,19.78
2022-10-07T13:43:51.108Z,19.64
2022-10-07T13:49:22.724Z,19.50
2022-10-07T13:54:54.327Z,19.38
2022-10-07T14:00:26.285Z,19.27
2022-10-07T14:16:57.047Z,18.83
2022-10-07T14:22:28.629Z,18.69
2022-10-07T14:28:00.446Z,18.66
2022-10-07T14:33:31.991Z,18.67
2022-10-07T14:41:23.742Z,18.15
2022-10-07T14:46:55.534Z,18.29
2022-10-07T14:52:27.184Z,18.36
2022-10-07T15:03:28.605Z,18.09
2022-10-07T15:09:00.588Z,17.96
2022-10-07T15:14:32.063Z,17.90
2022-10-07T15:20:03.686Z,17.86
2022-10-07T15:25:35.462Z,17.83
2022-10-07T15:31:07.152Z,17.72
2022-10-07T15:36:38.803Z,17.60
2022-10-07T15:42:12.382Z,17.52
2022-10-07T15:52:27.188Z,16.83
2022-10-07T16:19:56.544Z,16.67
2022-10-07T16:38:51.800Z,15.60
2022-10-07T16:44:23.595Z,15.74
2022-10-07T16:52:17.330Z,15.24
2022-10-07T17:03:18.501Z,15.39
2022-10-07T17:08:50.480Z,15.37
2022-10-07T17:14:22.313Z,15.29
2022-10-07T17:19:54.073Z,15.19
2022-10-07T17:27:48.144Z,14.55
2022-10-07T17:33:19.779Z,14.71
2022-10-07T17:38:51.751Z,14.74
2022-10-07T17:52:14.346Z,14.16
2022-10-07T17:57:46.002Z,14.31
2022-10-07T18:19:45.958Z,14.14
2022-10-07T18:30:46.803Z,13.96
2022-10-07T18:36:18.135Z,13.88
2022-10-07T18:41:49.423Z,13.79
2022-10-07T18:47:20.906Z,13.71
2022-10-07T18:52:52.750Z,13.62
2022-10-07T18:58:24.438Z,13.54
2022-10-07T19:03:55.995Z,13.46
2022-10-07T19:09:27.452Z,13.38
2022-10-07T19:14:59.058Z,13.30
2022-10-07T19:20:30.953Z,13.22
2022-10-07T19:26:02.863Z,13.14
2022-10-07T19:31:34.772Z,13.06
2022-10-07T19:37:06.376Z,12.99
2022-10-07T19:44:59.961Z,12.39
2022-10-07T19:50:31.275Z,12.55
2022-10-07T19:56:02.762Z,12.60
2022-10-07T20:01:34.446Z,12.61
2022-10-07T20:12:35.322Z,12.56
2022-10-07T20:18:07.197Z,12.53
2022-10-07T20:23:39.001Z,12.50
2022-10-07T20:29:10.777Z,12.47
2022-10-07T20:40:12.068Z,12.43
2022-10-07T20:45:43.870Z,12.41
2022-10-07T20:51:15.633Z,12.37
2022-10-07T20:56:47.616Z,12.33
2022-10-07T21:02:19.714Z,12.28
2022-10-07T21:07:54.665Z,12.24
2022-10-07T21:13:23.379Z,12.18
2022-10-07T21:18:55.319Z,12.13
2022-10-07T21:24:26.902Z,12.08
2022-10-07T21:29:58.603Z,12.03
2022-10-07T21:35:30.186Z,11.99
2022-10-07T21:41:01.828Z,11.95
2022-10-07T21:46:33.763Z,11.92
2022-10-07T21:52:05.314Z,11.89
2022-10-07T22:03:05.978Z,11.81
2022-10-07T22:08:37.522Z,11.76
2022-10-07T22:14:12.536Z,11.70
2022-10-07T22:19:41.152Z,11.64
2022-10-07T22:25:12.821Z,11.57
2022-10-07T22:30:44.662Z,11.50
2022-10-07T22:36:16.394Z,11.44
2022-10-07T22:41:48.177Z,11.37
2022-10-07T22:47:19.911Z,11.31
2022-10-07T22:58:20.868Z,11.19
2022-10-07T23:03:52.919Z,11.15
2022-10-07T23:09:24.637Z,11.12
2022-10-07T23:14:56.318Z,11.10
2022-10-07T23:20:28.023Z,11.07
2022-10-07T23:25:59.428Z,11.05
2022-10-07T23:31:31.245Z,11.02
2022-10-07T23:37:03.003Z,10.99
2022-10-07T23:42:34.736Z,10.95
2022-10-07T23:48:06.473Z,10.91
2022-10-07T23:53:38.117Z,10.87
2022-10-07T23:59:09.855Z,10.83
